Sautee Nacoochee, Georgia
Current Conditions -  °F | °C
As of 11:35 AM on Thursday 30 Oct 2014 (Local Time) from KTOC Reporting Station
Clear Clear  
Wind Chill: 61°   Ceiling: Unl
Heat Index: 61°   Visibility: 10mi
Dew Point: 40°   Wind: 3mph
Humidity: 45%   Direction: 50°NE
Pressure: 30.09"   Gusts: NA
Location:  34.72°N, 83.73°W
Report Text: KTOC 301535Z AUTO 05003KT 10SM CLR 16/04 A3009 RMK AO2 T01620042
Loading
Personal Weather Stations






























Interactive Weather Map
Tropical Storm Tracking
New forecast layout! Learn more

10-Day Weather Forecast

Advertisements
Track Severe Weather on mobile